sensor_id;sensor_type;location;lat;lon;timestamp;P1;durP1;ratioP1;P2;durP2;ratioP2
65375;SDS011;51976;47.332;9.404;2023-04-28T00:00:43;1.90;;;1.25;;
65375;SDS011;51976;47.332;9.404;2023-04-28T00:03:11;2.40;;;1.20;;
65375;SDS011;51976;47.332;9.404;2023-04-28T00:05:36;3.95;;;1.30;;
65375;SDS011;51976;47.332;9.404;2023-04-28T00:08:01;2.83;;;1.17;;
65375;SDS011;51976;47.332;9.404;2023-04-28T00:10:27;2.13;;;1.40;;
65375;SDS011;51976;47.332;9.404;2023-04-28T00:12:53;2.58;;;1.23;;
65375;SDS011;51976;47.332;9.404;2023-04-28T00:15:18;3.25;;;1.30;;
65375;SDS011;51976;47.332;9.404;2023-04-28T00:17:44;5.80;;;1.30;;
65375;SDS011;51976;47.332;9.404;2023-04-28T00:20:09;1.92;;;1.58;;
65375;SDS011;51976;47.332;9.404;2023-04-28T00:22:35;1.77;;;1.45;;
65375;SDS011;51976;47.332;9.404;2023-04-28T00:25:00;4.45;;;1.20;;
65375;SDS011;51976;47.332;9.404;2023-04-28T00:27:26;3.15;;;1.33;;
65375;SDS011;51976;47.332;9.404;2023-04-28T00:29:52;4.30;;;1.30;;
65375;SDS011;51976;47.332;9.404;2023-04-28T00:32:18;2.28;;;1.30;;
65375;SDS011;51976;47.332;9.404;2023-04-28T00:34:43;2.15;;;1.40;;
65375;SDS011;51976;47.332;9.404;2023-04-28T00:37:08;3.95;;;1.52;;
65375;SDS011;51976;47.332;9.404;2023-04-28T00:39:34;6.82;;;2.60;;
65375;SDS011;51976;47.332;9.404;2023-04-28T00:41:59;3.58;;;2.20;;
65375;SDS011;51976;47.332;9.404;2023-04-28T00:44:26;3.97;;;2.15;;
65375;SDS011;51976;47.332;9.404;2023-04-28T00:46:51;3.92;;;1.45;;
65375;SDS011;51976;47.332;9.404;2023-04-28T00:49:17;1.85;;;1.30;;
65375;SDS011;51976;47.332;9.404;2023-04-28T00:51:43;4.90;;;1.13;;
65375;SDS011;51976;47.332;9.404;2023-04-28T00:54:08;3.20;;;1.40;;
65375;SDS011;51976;47.332;9.404;2023-04-28T00:56:37;1.70;;;1.30;;
65375;SDS011;51976;47.332;9.404;2023-04-28T00:59:03;3.42;;;1.30;;
65375;SDS011;51976;47.332;9.404;2023-04-28T01:01:29;2.42;;;1.05;;
65375;SDS011;51976;47.332;9.404;2023-04-28T01:03:55;1.77;;;1.33;;
65375;SDS011;51976;47.332;9.404;2023-04-28T01:06:21;2.80;;;1.50;;
65375;SDS011;51976;47.332;9.404;2023-04-28T01:08:48;1.52;;;0.93;;
65375;SDS011;51976;47.332;9.404;2023-04-28T01:11:17;3.33;;;1.70;;
65375;SDS011;51976;47.332;9.404;2023-04-28T01:13:43;3.08;;;1.33;;
65375;SDS011;51976;47.332;9.404;2023-04-28T01:16:09;1.50;;;1.17;;
65375;SDS011;51976;47.332;9.404;2023-04-28T01:18:35;2.60;;;1.02;;
65375;SDS011;51976;47.332;9.404;2023-04-28T01:21:01;1.40;;;1.02;;
65375;SDS011;51976;47.332;9.404;2023-04-28T01:23:29;2.22;;;1.20;;
65375;SDS011;51976;47.332;9.404;2023-04-28T01:26:02;4.50;;;1.38;;
65375;SDS011;51976;47.332;9.404;2023-04-28T01:28:33;2.17;;;1.10;;
65375;SDS011;51976;47.332;9.404;2023-04-28T01:30:58;2.00;;;1.05;;
65375;SDS011;51976;47.332;9.404;2023-04-28T01:33:24;2.63;;;1.10;;
65375;SDS011;51976;47.332;9.404;2023-04-28T01:35:49;2.95;;;1.38;;
65375;SDS011;51976;47.332;9.404;2023-04-28T01:38:14;1.63;;;0.70;;
65375;SDS011;51976;47.332;9.404;2023-04-28T01:40:40;1.83;;;0.90;;
65375;SDS011;51976;47.332;9.404;2023-04-28T01:43:05;3.22;;;0.80;;
65375;SDS011;51976;47.332;9.404;2023-04-28T01:45:31;1.73;;;1.20;;
65375;SDS011;51976;47.332;9.404;2023-04-28T01:47:56;2.22;;;1.00;;
65375;SDS011;51976;47.332;9.404;2023-04-28T01:50:21;1.60;;;1.00;;
65375;SDS011;51976;47.332;9.404;2023-04-28T01:52:47;1.60;;;1.05;;
65375;SDS011;51976;47.332;9.404;2023-04-28T01:55:12;3.25;;;1.70;;
65375;SDS011;51976;47.332;9.404;2023-04-28T01:57:37;1.58;;;0.90;;
65375;SDS011;51976;47.332;9.404;2023-04-28T02:00:03;1.70;;;1.02;;
65375;SDS011;51976;47.332;9.404;2023-04-28T02:02:29;1.27;;;0.75;;
65375;SDS011;51976;47.332;9.404;2023-04-28T02:04:54;1.55;;;0.80;;
65375;SDS011;51976;47.332;9.404;2023-04-28T02:07:21;1.23;;;1.08;;
65375;SDS011;51976;47.332;9.404;2023-04-28T02:09:47;2.42;;;0.98;;
65375;SDS011;51976;47.332;9.404;2023-04-28T02:12:12;3.22;;;1.00;;
65375;SDS011;51976;47.332;9.404;2023-04-28T02:14:38;1.02;;;0.70;;
65375;SDS011;51976;47.332;9.404;2023-04-28T02:17:03;1.40;;;0.73;;
65375;SDS011;51976;47.332;9.404;2023-04-28T02:19:29;1.88;;;1.10;;
65375;SDS011;51976;47.332;9.404;2023-04-28T02:21:54;2.83;;;0.80;;
65375;SDS011;51976;47.332;9.404;2023-04-28T02:24:20;0.98;;;0.70;;
65375;SDS011;51976;47.332;9.404;2023-04-28T02:26:45;1.58;;;0.90;;
65375;SDS011;51976;47.332;9.404;2023-04-28T02:29:11;1.15;;;0.77;;
65375;SDS011;51976;47.332;9.404;2023-04-28T02:31:36;1.02;;;0.63;;
65375;SDS011;51976;47.332;9.404;2023-04-28T02:34:01;3.50;;;1.13;;
65375;SDS011;51976;47.332;9.404;2023-04-28T02:36:27;2.10;;;0.98;;
65375;SDS011;51976;47.332;9.404;2023-04-28T02:38:52;1.60;;;1.05;;
65375;SDS011;51976;47.332;9.404;2023-04-28T02:41:18;2.78;;;0.88;;
65375;SDS011;51976;47.332;9.404;2023-04-28T02:43:43;2.45;;;0.88;;
65375;SDS011;51976;47.332;9.404;2023-04-28T02:46:08;2.08;;;0.93;;
65375;SDS011;51976;47.332;9.404;2023-04-28T02:48:35;1.38;;;0.70;;
65375;SDS011;51976;47.332;9.404;2023-04-28T02:51:01;3.50;;;0.82;;
65375;SDS011;51976;47.332;9.404;2023-04-28T02:53:27;1.65;;;0.75;;
65375;SDS011;51976;47.332;9.404;2023-04-28T02:55:52;2.60;;;0.80;;
65375;SDS011;51976;47.332;9.404;2023-04-28T02:58:18;1.92;;;0.73;;
65375;SDS011;51976;47.332;9.404;2023-04-28T03:00:43;3.83;;;0.75;;
65375;SDS011;51976;47.332;9.404;2023-04-28T03:03:09;1.27;;;0.70;;
65375;SDS011;51976;47.332;9.404;2023-04-28T03:05:34;1.52;;;0.80;;
65375;SDS011;51976;47.332;9.404;2023-04-28T03:08:00;1.13;;;0.82;;
65375;SDS011;51976;47.332;9.404;2023-04-28T03:10:25;1.65;;;0.82;;
65375;SDS011;51976;47.332;9.404;2023-04-28T03:12:51;1.50;;;0.60;;
65375;SDS011;51976;47.332;9.404;2023-04-28T03:15:16;2.35;;;0.85;;
65375;SDS011;51976;47.332;9.404;2023-04-28T03:17:42;1.50;;;0.85;;
65375;SDS011;51976;47.332;9.404;2023-04-28T03:20:07;1.95;;;1.00;;
65375;SDS011;51976;47.332;9.404;2023-04-28T03:22:34;2.80;;;0.95;;
65375;SDS011;51976;47.332;9.404;2023-04-28T03:25:00;6.13;;;1.10;;
65375;SDS011;51976;47.332;9.404;2023-04-28T03:27:25;1.92;;;1.10;;
65375;SDS011;51976;47.332;9.404;2023-04-28T03:29:51;2.85;;;1.00;;
65375;SDS011;51976;47.332;9.404;2023-04-28T03:32:16;2.72;;;0.93;;
65375;SDS011;51976;47.332;9.404;2023-04-28T03:34:41;1.50;;;0.90;;
65375;SDS011;51976;47.332;9.404;2023-04-28T03:37:07;2.58;;;0.90;;
65375;SDS011;51976;47.332;9.404;2023-04-28T03:39:32;2.60;;;0.90;;
65375;SDS011;51976;47.332;9.404;2023-04-28T03:41:58;2.38;;;0.90;;
65375;SDS011;51976;47.332;9.404;2023-04-28T03:44:23;2.45;;;1.10;;
65375;SDS011;51976;47.332;9.404;2023-04-28T03:46:49;5.22;;;3.13;;
65375;SDS011;51976;47.332;9.404;2023-04-28T03:49:14;5.18;;;3.35;;
65375;SDS011;51976;47.332;9.404;2023-04-28T03:51:40;7.45;;;2.90;;
65375;SDS011;51976;47.332;9.404;2023-04-28T03:54:05;5.38;;;2.30;;
65375;SDS011;51976;47.332;9.404;2023-04-28T03:56:31;4.40;;;1.88;;
65375;SDS011;51976;47.332;9.404;2023-04-28T03:58:56;4.95;;;2.00;;
65375;SDS011;51976;47.332;9.404;2023-04-28T04:01:22;2.67;;;1.70;;
65375;SDS011;51976;47.332;9.404;2023-04-28T04:03:47;2.72;;;1.48;;
65375;SDS011;51976;47.332;9.404;2023-04-28T04:06:13;2.80;;;1.50;;
65375;SDS011;51976;47.332;9.404;2023-04-28T04:08:39;3.28;;;1.77;;
65375;SDS011;51976;47.332;9.404;2023-04-28T04:11:04;2.83;;;1.40;;
65375;SDS011;51976;47.332;9.404;2023-04-28T04:13:30;3.63;;;1.35;;
65375;SDS011;51976;47.332;9.404;2023-04-28T04:15:55;6.40;;;3.35;;
65375;SDS011;51976;47.332;9.404;2023-04-28T04:18:20;5.28;;;2.60;;
65375;SDS011;51976;47.332;9.404;2023-04-28T04:20:46;4.45;;;2.42;;
65375;SDS011;51976;47.332;9.404;2023-04-28T04:23:11;2.50;;;1.40;;
65375;SDS011;51976;47.332;9.404;2023-04-28T04:25:37;4.75;;;1.20;;
65375;SDS011;51976;47.332;9.404;2023-04-28T04:28:02;5.93;;;3.00;;
65375;SDS011;51976;47.332;9.404;2023-04-28T04:30:27;4.85;;;2.95;;
65375;SDS011;51976;47.332;9.404;2023-04-28T04:32:53;6.70;;;3.78;;
65375;SDS011;51976;47.332;9.404;2023-04-28T04:35:18;5.85;;;3.65;;
65375;SDS011;51976;47.332;9.404;2023-04-28T04:37:44;4.28;;;2.10;;
65375;SDS011;51976;47.332;9.404;2023-04-28T04:40:09;6.70;;;2.83;;
65375;SDS011;51976;47.332;9.404;2023-04-28T04:42:35;3.72;;;2.55;;
65375;SDS011;51976;47.332;9.404;2023-04-28T04:45:00;4.35;;;1.77;;
65375;SDS011;51976;47.332;9.404;2023-04-28T04:47:26;3.20;;;2.13;;
65375;SDS011;51976;47.332;9.404;2023-04-28T04:49:52;3.33;;;2.08;;
65375;SDS011;51976;47.332;9.404;2023-04-28T04:52:17;5.45;;;2.40;;
65375;SDS011;51976;47.332;9.404;2023-04-28T04:54:44;6.95;;;2.90;;
65375;SDS011;51976;47.332;9.404;2023-04-28T04:57:10;3.85;;;2.13;;
65375;SDS011;51976;47.332;9.404;2023-04-28T04:59:37;1.70;;;1.27;;
65375;SDS011;51976;47.332;9.404;2023-04-28T05:02:02;3.47;;;1.40;;
65375;SDS011;51976;47.332;9.404;2023-04-28T05:04:27;4.07;;;1.15;;
65375;SDS011;51976;47.332;9.404;2023-04-28T05:06:53;1.70;;;1.30;;
65375;SDS011;51976;47.332;9.404;2023-04-28T05:09:18;4.40;;;1.45;;
65375;SDS011;51976;47.332;9.404;2023-04-28T05:11:44;2.20;;;1.20;;
65375;SDS011;51976;47.332;9.404;2023-04-28T05:14:09;2.20;;;1.45;;
65375;SDS011;51976;47.332;9.404;2023-04-28T05:16:35;3.67;;;1.73;;
65375;SDS011;51976;47.332;9.404;2023-04-28T05:19:02;4.10;;;1.55;;
65375;SDS011;51976;47.332;9.404;2023-04-28T05:21:28;3.17;;;1.52;;
65375;SDS011;51976;47.332;9.404;2023-04-28T05:23:53;2.08;;;1.60;;
65375;SDS011;51976;47.332;9.404;2023-04-28T05:26:19;2.50;;;1.80;;
65375;SDS011;51976;47.332;9.404;2023-04-28T05:28:44;2.47;;;1.88;;
65375;SDS011;51976;47.332;9.404;2023-04-28T05:31:10;4.13;;;2.38;;
65375;SDS011;51976;47.332;9.404;2023-04-28T05:33:36;3.72;;;2.10;;
65375;SDS011;51976;47.332;9.404;2023-04-28T05:36:02;3.42;;;2.20;;
65375;SDS011;51976;47.332;9.404;2023-04-28T05:38:27;4.15;;;1.98;;
65375;SDS011;51976;47.332;9.404;2023-04-28T05:40:53;3.65;;;1.90;;
65375;SDS011;51976;47.332;9.404;2023-04-28T05:43:19;3.97;;;2.33;;
65375;SDS011;51976;47.332;9.404;2023-04-28T05:45:45;2.85;;;1.60;;
65375;SDS011;51976;47.332;9.404;2023-04-28T05:48:10;4.32;;;1.90;;
65375;SDS011;51976;47.332;9.404;2023-04-28T05:50:36;3.20;;;1.80;;
65375;SDS011;51976;47.332;9.404;2023-04-28T05:53:01;3.03;;;1.60;;
65375;SDS011;51976;47.332;9.404;2023-04-28T05:55:28;3.45;;;1.77;;
65375;SDS011;51976;47.332;9.404;2023-04-28T05:57:55;4.07;;;1.95;;
65375;SDS011;51976;47.332;9.404;2023-04-28T06:00:21;4.05;;;2.10;;
65375;SDS011;51976;47.332;9.404;2023-04-28T06:02:46;3.97;;;1.98;;
65375;SDS011;51976;47.332;9.404;2023-04-28T06:05:12;3.08;;;2.08;;
65375;SDS011;51976;47.332;9.404;2023-04-28T06:07:37;3.83;;;2.10;;
65375;SDS011;51976;47.332;9.404;2023-04-28T06:10:03;4.72;;;2.10;;
65375;SDS011;51976;47.332;9.404;2023-04-28T06:12:29;3.47;;;1.80;;
65375;SDS011;51976;47.332;9.404;2023-04-28T06:14:55;3.33;;;1.73;;
65375;SDS011;51976;47.332;9.404;2023-04-28T06:17:20;3.90;;;1.55;;
65375;SDS011;51976;47.332;9.404;2023-04-28T06:19:46;2.53;;;1.60;;
65375;SDS011;51976;47.332;9.404;2023-04-28T06:22:11;2.50;;;1.70;;
65375;SDS011;51976;47.332;9.404;2023-04-28T06:24:37;4.03;;;1.60;;
65375;SDS011;51976;47.332;9.404;2023-04-28T06:27:02;3.38;;;1.48;;
65375;SDS011;51976;47.332;9.404;2023-04-28T06:29:28;3.83;;;1.67;;
65375;SDS011;51976;47.332;9.404;2023-04-28T06:31:53;3.17;;;1.80;;
65375;SDS011;51976;47.332;9.404;2023-04-28T06:34:23;3.72;;;1.58;;
65375;SDS011;51976;47.332;9.404;2023-04-28T06:36:52;3.05;;;1.73;;
65375;SDS011;51976;47.332;9.404;2023-04-28T06:39:19;3.08;;;1.50;;
65375;SDS011;51976;47.332;9.404;2023-04-28T06:41:46;2.83;;;1.63;;
65375;SDS011;51976;47.332;9.404;2023-04-28T06:44:11;2.55;;;1.60;;
65375;SDS011;51976;47.332;9.404;2023-04-28T06:46:37;4.22;;;2.30;;
65375;SDS011;51976;47.332;9.404;2023-04-28T06:49:03;5.28;;;3.08;;
65375;SDS011;51976;47.332;9.404;2023-04-28T06:51:29;4.28;;;2.60;;
65375;SDS011;51976;47.332;9.404;2023-04-28T06:53:57;6.32;;;3.83;;
65375;SDS011;51976;47.332;9.404;2023-04-28T06:56:22;5.88;;;2.78;;
65375;SDS011;51976;47.332;9.404;2023-04-28T06:58:49;4.47;;;2.42;;
65375;SDS011;51976;47.332;9.404;2023-04-28T07:01:15;4.40;;;2.33;;
65375;SDS011;51976;47.332;9.404;2023-04-28T07:03:41;2.33;;;1.48;;
65375;SDS011;51976;47.332;9.404;2023-04-28T07:06:06;2.35;;;1.50;;
65375;SDS011;51976;47.332;9.404;2023-04-28T07:08:32;4.20;;;1.60;;
65375;SDS011;51976;47.332;9.404;2023-04-28T07:10:58;2.92;;;1.70;;
65375;SDS011;51976;47.332;9.404;2023-04-28T07:13:24;2.10;;;1.58;;
65375;SDS011;51976;47.332;9.404;2023-04-28T07:15:50;2.53;;;1.48;;
65375;SDS011;51976;47.332;9.404;2023-04-28T07:18:15;3.33;;;1.77;;
65375;SDS011;51976;47.332;9.404;2023-04-28T07:20:40;2.65;;;1.60;;
65375;SDS011;51976;47.332;9.404;2023-04-28T07:23:06;3.25;;;1.50;;
65375;SDS011;51976;47.332;9.404;2023-04-28T07:25:31;2.65;;;1.92;;
65375;SDS011;51976;47.332;9.404;2023-04-28T07:27:57;3.17;;;2.10;;
65375;SDS011;51976;47.332;9.404;2023-04-28T07:30:23;2.38;;;1.98;;
65375;SDS011;51976;47.332;9.404;2023-04-28T07:32:50;4.32;;;3.17;;
65375;SDS011;51976;47.332;9.404;2023-04-28T07:35:15;3.05;;;2.08;;
65375;SDS011;51976;47.332;9.404;2023-04-28T07:37:41;5.10;;;3.08;;
65375;SDS011;51976;47.332;9.404;2023-04-28T07:40:07;12.63;;;7.10;;
65375;SDS011;51976;47.332;9.404;2023-04-28T07:42:32;5.93;;;4.20;;
65375;SDS011;51976;47.332;9.404;2023-04-28T07:44:58;15.80;;;10.13;;
65375;SDS011;51976;47.332;9.404;2023-04-28T07:47:23;22.95;;;14.75;;
65375;SDS011;51976;47.332;9.404;2023-04-28T07:49:49;13.40;;;9.60;;
65375;SDS011;51976;47.332;9.404;2023-04-28T07:52:14;13.75;;;8.50;;
65375;SDS011;51976;47.332;9.404;2023-04-28T07:54:40;15.25;;;9.25;;
65375;SDS011;51976;47.332;9.404;2023-04-28T07:57:05;12.15;;;7.57;;
65375;SDS011;51976;47.332;9.404;2023-04-28T07:59:33;4.43;;;3.00;;
65375;SDS011;51976;47.332;9.404;2023-04-28T08:01:59;5.13;;;2.33;;
65375;SDS011;51976;47.332;9.404;2023-04-28T08:04:24;2.45;;;1.63;;
65375;SDS011;51976;47.332;9.404;2023-04-28T08:06:49;6.70;;;3.50;;
65375;SDS011;51976;47.332;9.404;2023-04-28T08:09:15;3.03;;;1.70;;
65375;SDS011;51976;47.332;9.404;2023-04-28T08:11:41;4.38;;;2.15;;
65375;SDS011;51976;47.332;9.404;2023-04-28T08:14:06;4.88;;;2.65;;
65375;SDS011;51976;47.332;9.404;2023-04-28T08:16:32;2.10;;;1.30;;
65375;SDS011;51976;47.332;9.404;2023-04-28T08:19:00;1.33;;;0.98;;
65375;SDS011;51976;47.332;9.404;2023-04-28T08:21:26;3.03;;;1.73;;
65375;SDS011;51976;47.332;9.404;2023-04-28T08:23:52;5.40;;;1.80;;
65375;SDS011;51976;47.332;9.404;2023-04-28T08:26:17;4.35;;;2.30;;
65375;SDS011;51976;47.332;9.404;2023-04-28T08:28:42;2.22;;;1.40;;
65375;SDS011;51976;47.332;9.404;2023-04-28T08:31:08;2.20;;;1.40;;
65375;SDS011;51976;47.332;9.404;2023-04-28T08:33:36;2.60;;;1.63;;
65375;SDS011;51976;47.332;9.404;2023-04-28T08:36:03;4.50;;;1.90;;
65375;SDS011;51976;47.332;9.404;2023-04-28T08:38:29;3.10;;;1.80;;
65375;SDS011;51976;47.332;9.404;2023-04-28T08:40:54;4.15;;;1.50;;
65375;SDS011;51976;47.332;9.404;2023-04-28T08:43:20;3.58;;;1.70;;
65375;SDS011;51976;47.332;9.404;2023-04-28T08:45:45;2.67;;;1.30;;
65375;SDS011;51976;47.332;9.404;2023-04-28T08:48:16;4.53;;;2.42;;
65375;SDS011;51976;47.332;9.404;2023-04-28T08:50:47;4.63;;;1.98;;
65375;SDS011;51976;47.332;9.404;2023-04-28T08:53:16;2.75;;;1.88;;
65375;SDS011;51976;47.332;9.404;2023-04-28T08:55:50;2.60;;;1.20;;
65375;SDS011;51976;47.332;9.404;2023-04-28T08:58:19;2.30;;;1.33;;
65375;SDS011;51976;47.332;9.404;2023-04-28T09:00:47;1.23;;;0.70;;
65375;SDS011;51976;47.332;9.404;2023-04-28T09:03:13;2.55;;;1.08;;
65375;SDS011;51976;47.332;9.404;2023-04-28T09:05:39;2.47;;;1.17;;
65375;SDS011;51976;47.332;9.404;2023-04-28T09:08:04;1.38;;;0.77;;
65375;SDS011;51976;47.332;9.404;2023-04-28T09:10:30;2.22;;;1.08;;
65375;SDS011;51976;47.332;9.404;2023-04-28T09:12:55;2.95;;;2.03;;
65375;SDS011;51976;47.332;9.404;2023-04-28T09:15:24;2.38;;;1.67;;
65375;SDS011;51976;47.332;9.404;2023-04-28T09:17:51;2.83;;;1.35;;
65375;SDS011;51976;47.332;9.404;2023-04-28T09:20:21;2.10;;;1.20;;
65375;SDS011;51976;47.332;9.404;2023-04-28T09:22:48;3.40;;;1.98;;
65375;SDS011;51976;47.332;9.404;2023-04-28T09:25:15;2.78;;;1.20;;
65375;SDS011;51976;47.332;9.404;2023-04-28T09:27:41;3.00;;;1.67;;
65375;SDS011;51976;47.332;9.404;2023-04-28T09:30:07;5.80;;;1.65;;
65375;SDS011;51976;47.332;9.404;2023-04-28T09:32:34;2.45;;;1.30;;
65375;SDS011;51976;47.332;9.404;2023-04-28T09:35:00;6.72;;;1.90;;
65375;SDS011;51976;47.332;9.404;2023-04-28T09:37:29;3.22;;;1.33;;
65375;SDS011;51976;47.332;9.404;2023-04-28T09:39:56;4.22;;;1.63;;
65375;SDS011;51976;47.332;9.404;2023-04-28T09:42:33;3.05;;;1.77;;
65375;SDS011;51976;47.332;9.404;2023-04-28T09:45:06;3.60;;;1.63;;
65375;SDS011;51976;47.332;9.404;2023-04-28T09:47:34;3.90;;;1.60;;
65375;SDS011;51976;47.332;9.404;2023-04-28T09:50:06;3.55;;;1.73;;
65375;SDS011;51976;47.332;9.404;2023-04-28T09:52:33;1.70;;;1.20;;
65375;SDS011;51976;47.332;9.404;2023-04-28T09:55:00;2.25;;;1.10;;
65375;SDS011;51976;47.332;9.404;2023-04-28T09:57:31;1.42;;;1.10;;
65375;SDS011;51976;47.332;9.404;2023-04-28T09:59:58;4.72;;;1.27;;
65375;SDS011;51976;47.332;9.404;2023-04-28T10:02:24;2.42;;;1.30;;
65375;SDS011;51976;47.332;9.404;2023-04-28T10:04:51;2.97;;;1.63;;
65375;SDS011;51976;47.332;9.404;2023-04-28T10:07:17;2.05;;;1.40;;
65375;SDS011;51976;47.332;9.404;2023-04-28T10:09:47;3.63;;;1.30;;
65375;SDS011;51976;47.332;9.404;2023-04-28T10:12:16;2.60;;;1.27;;
65375;SDS011;51976;47.332;9.404;2023-04-28T10:14:42;2.35;;;1.17;;
65375;SDS011;51976;47.332;9.404;2023-04-28T10:17:09;1.67;;;1.23;;
65375;SDS011;51976;47.332;9.404;2023-04-28T10:19:35;1.90;;;1.05;;
65375;SDS011;51976;47.332;9.404;2023-04-28T10:22:14;1.85;;;1.33;;
65375;SDS011;51976;47.332;9.404;2023-04-28T10:25:31;5.22;;;2.65;;
65375;SDS011;51976;47.332;9.404;2023-04-28T10:27:51;4.88;;;1.92;;
65375;SDS011;51976;47.332;9.404;2023-04-28T10:30:18;3.47;;;2.53;;
65375;SDS011;51976;47.332;9.404;2023-04-28T10:32:46;4.55;;;3.08;;
65375;SDS011;51976;47.332;9.404;2023-04-28T10:38:12;4.78;;;3.38;;
65375;SDS011;51976;47.332;9.404;2023-04-28T10:40:42;6.05;;;3.72;;
65375;SDS011;51976;47.332;9.404;2023-04-28T10:43:10;5.18;;;3.63;;
65375;SDS011;51976;47.332;9.404;2023-04-28T10:51:20;5.82;;;3.88;;
65375;SDS011;51976;47.332;9.404;2023-04-28T10:56:32;8.55;;;3.58;;
65375;SDS011;51976;47.332;9.404;2023-04-28T10:58:58;5.28;;;3.67;;
65375;SDS011;51976;47.332;9.404;2023-04-28T11:01:25;7.40;;;3.00;;
65375;SDS011;51976;47.332;9.404;2023-04-28T11:03:53;9.55;;;5.57;;
65375;SDS011;51976;47.332;9.404;2023-04-28T11:08:58;3.15;;;1.95;;
65375;SDS011;51976;47.332;9.404;2023-04-28T11:11:29;1.98;;;1.23;;
65375;SDS011;51976;47.332;9.404;2023-04-28T11:14:44;3.88;;;2.55;;
65375;SDS011;51976;47.332;9.404;2023-04-28T11:17:04;2.15;;;1.27;;
65375;SDS011;51976;47.332;9.404;2023-04-28T11:19:32;3.15;;;2.10;;
65375;SDS011;51976;47.332;9.404;2023-04-28T11:21:59;1.85;;;1.20;;
65375;SDS011;51976;47.332;9.404;2023-04-28T11:24:27;2.15;;;1.35;;
65375;SDS011;51976;47.332;9.404;2023-04-28T11:26:53;1.48;;;0.90;;
65375;SDS011;51976;47.332;9.404;2023-04-28T11:29:31;4.25;;;2.10;;
65375;SDS011;51976;47.332;9.404;2023-04-28T11:32:05;3.67;;;2.20;;
65375;SDS011;51976;47.332;9.404;2023-04-28T11:34:32;4.38;;;2.20;;
65375;SDS011;51976;47.332;9.404;2023-04-28T11:36:58;2.60;;;1.48;;
65375;SDS011;51976;47.332;9.404;2023-04-28T11:39:24;2.97;;;1.60;;
65375;SDS011;51976;47.332;9.404;2023-04-28T11:42:15;1.38;;;0.93;;
65375;SDS011;51976;47.332;9.404;2023-04-28T11:44:41;1.80;;;1.00;;
65375;SDS011;51976;47.332;9.404;2023-04-28T11:47:16;1.75;;;0.85;;
65375;SDS011;51976;47.332;9.404;2023-04-28T11:49:52;2.80;;;1.30;;
65375;SDS011;51976;47.332;9.404;2023-04-28T11:52:18;0.40;;;0.30;;
65375;SDS011;51976;47.332;9.404;2023-04-28T11:54:51;0.60;;;0.20;;
65375;SDS011;51976;47.332;9.404;2023-04-28T11:57:22;0.50;;;0.30;;
65375;SDS011;51976;47.332;9.404;2023-04-28T11:59:49;0.38;;;0.17;;
65375;SDS011;51976;47.332;9.404;2023-04-28T12:02:15;0.52;;;0.30;;
65375;SDS011;51976;47.332;9.404;2023-04-28T12:04:48;0.70;;;0.30;;
65375;SDS011;51976;47.332;9.404;2023-04-28T12:07:16;0.63;;;0.30;;
65375;SDS011;51976;47.332;9.404;2023-04-28T12:09:44;0.95;;;0.47;;
65375;SDS011;51976;47.332;9.404;2023-04-28T12:12:13;0.57;;;0.20;;
65375;SDS011;51976;47.332;9.404;2023-04-28T12:14:54;0.85;;;0.32;;
65375;SDS011;51976;47.332;9.404;2023-04-28T12:17:25;0.90;;;0.40;;
65375;SDS011;51976;47.332;9.404;2023-04-28T12:19:55;0.80;;;0.38;;
65375;SDS011;51976;47.332;9.404;2023-04-28T12:22:23;0.38;;;0.28;;
65375;SDS011;51976;47.332;9.404;2023-04-28T12:25:06;0.68;;;0.20;;
65375;SDS011;51976;47.332;9.404;2023-04-28T12:27:33;0.43;;;0.20;;
65375;SDS011;51976;47.332;9.404;2023-04-28T12:30:00;0.68;;;0.20;;
65375;SDS011;51976;47.332;9.404;2023-04-28T12:32:38;0.40;;;0.30;;
65375;SDS011;51976;47.332;9.404;2023-04-28T12:35:09;0.45;;;0.10;;
65375;SDS011;51976;47.332;9.404;2023-04-28T12:37:35;0.55;;;0.32;;
65375;SDS011;51976;47.332;9.404;2023-04-28T12:40:03;0.10;;;0.10;;
65375;SDS011;51976;47.332;9.404;2023-04-28T12:42:30;0.32;;;0.13;;
65375;SDS011;51976;47.332;9.404;2023-04-28T12:44:56;0.55;;;0.20;;
65375;SDS011;51976;47.332;9.404;2023-04-28T12:47:22;0.28;;;0.10;;
65375;SDS011;51976;47.332;9.404;2023-04-28T12:49:48;0.50;;;0.20;;
65375;SDS011;51976;47.332;9.404;2023-04-28T12:52:16;0.30;;;0.10;;
65375;SDS011;51976;47.332;9.404;2023-04-28T12:54:42;0.20;;;0.10;;
65375;SDS011;51976;47.332;9.404;2023-04-28T12:57:11;0.20;;;0.10;;
65375;SDS011;51976;47.332;9.404;2023-04-28T12:59:37;0.47;;;0.20;;
65375;SDS011;51976;47.332;9.404;2023-04-28T13:02:03;0.25;;;0.10;;
65375;SDS011;51976;47.332;9.404;2023-04-28T13:04:29;0.47;;;0.20;;
65375;SDS011;51976;47.332;9.404;2023-04-28T13:06:55;0.22;;;0.10;;
65375;SDS011;51976;47.332;9.404;2023-04-28T13:09:22;0.70;;;0.20;;
65375;SDS011;51976;47.332;9.404;2023-04-28T13:11:49;0.40;;;0.10;;
65375;SDS011;51976;47.332;9.404;2023-04-28T13:14:15;0.63;;;0.10;;
65375;SDS011;51976;47.332;9.404;2023-04-28T13:16:40;0.50;;;0.20;;
65375;SDS011;51976;47.332;9.404;2023-04-28T13:19:05;0.13;;;0.10;;
65375;SDS011;51976;47.332;9.404;2023-04-28T13:21:37;0.75;;;0.47;;
65375;SDS011;51976;47.332;9.404;2023-04-28T13:24:03;0.90;;;0.30;;
65375;SDS011;51976;47.332;9.404;2023-04-28T13:26:29;0.93;;;0.38;;
65375;SDS011;51976;47.332;9.404;2023-04-28T13:28:55;0.20;;;0.10;;
65375;SDS011;51976;47.332;9.404;2023-04-28T13:31:21;0.30;;;0.10;;
65375;SDS011;51976;47.332;9.404;2023-04-28T13:33:46;0.28;;;0.10;;
65375;SDS011;51976;47.332;9.404;2023-04-28T13:36:11;0.63;;;0.20;;
65375;SDS011;51976;47.332;9.404;2023-04-28T13:38:37;0.17;;;0.10;;
65375;SDS011;51976;47.332;9.404;2023-04-28T13:41:03;0.70;;;0.10;;
65375;SDS011;51976;47.332;9.404;2023-04-28T13:43:28;0.22;;;0.10;;
65375;SDS011;51976;47.332;9.404;2023-04-28T13:45:55;0.65;;;0.10;;
65375;SDS011;51976;47.332;9.404;2023-04-28T13:48:20;0.55;;;0.38;;
65375;SDS011;51976;47.332;9.404;2023-04-28T13:50:46;2.42;;;1.00;;
65375;SDS011;51976;47.332;9.404;2023-04-28T13:53:11;1.45;;;0.85;;
65375;SDS011;51976;47.332;9.404;2023-04-28T13:55:37;0.75;;;0.30;;
65375;SDS011;51976;47.332;9.404;2023-04-28T13:58:02;1.10;;;0.50;;
65375;SDS011;51976;47.332;9.404;2023-04-28T14:00:30;3.15;;;1.75;;
65375;SDS011;51976;47.332;9.404;2023-04-28T14:02:56;2.40;;;0.90;;
65375;SDS011;51976;47.332;9.404;2023-04-28T14:05:22;3.45;;;1.90;;
65375;SDS011;51976;47.332;9.404;2023-04-28T14:07:47;1.52;;;0.70;;
65375;SDS011;51976;47.332;9.404;2023-04-28T14:10:13;1.80;;;1.00;;
65375;SDS011;51976;47.332;9.404;2023-04-28T14:12:38;3.30;;;1.90;;
65375;SDS011;51976;47.332;9.404;2023-04-28T14:15:06;2.08;;;1.30;;
65375;SDS011;51976;47.332;9.404;2023-04-28T14:17:32;2.08;;;0.82;;
65375;SDS011;51976;47.332;9.404;2023-04-28T14:19:59;3.72;;;2.38;;
65375;SDS011;51976;47.332;9.404;2023-04-28T14:22:25;1.38;;;0.80;;
65375;SDS011;51976;47.332;9.404;2023-04-28T14:24:51;3.50;;;1.00;;
65375;SDS011;51976;47.332;9.404;2023-04-28T14:27:17;0.80;;;0.55;;
65375;SDS011;51976;47.332;9.404;2023-04-28T14:29:42;1.70;;;1.02;;
65375;SDS011;51976;47.332;9.404;2023-04-28T14:32:08;1.38;;;0.80;;
65375;SDS011;51976;47.332;9.404;2023-04-28T14:34:34;2.67;;;1.65;;
65375;SDS011;51976;47.332;9.404;2023-04-28T14:36:59;2.47;;;1.33;;
65375;SDS011;51976;47.332;9.404;2023-04-28T14:39:24;2.03;;;1.27;;
65375;SDS011;51976;47.332;9.404;2023-04-28T14:41:50;2.30;;;1.60;;
65375;SDS011;51976;47.332;9.404;2023-04-28T14:44:15;3.20;;;1.98;;
65375;SDS011;51976;47.332;9.404;2023-04-28T14:46:41;2.33;;;1.40;;
65375;SDS011;51976;47.332;9.404;2023-04-28T14:49:07;2.13;;;1.20;;
65375;SDS011;51976;47.332;9.404;2023-04-28T14:51:33;3.08;;;1.02;;
65375;SDS011;51976;47.332;9.404;2023-04-28T14:53:59;2.88;;;1.60;;
65375;SDS011;51976;47.332;9.404;2023-04-28T14:56:24;1.85;;;1.35;;
65375;SDS011;51976;47.332;9.404;2023-04-28T14:58:50;3.60;;;1.38;;